Time;durP1;ratioP1;P1;durP2;ratioP2;P2;SDS_P1;SDS_P2;PMS_P1;PMS_P2;Temp;Humidity;BMP_temperature;BMP_pressure;BME280_temperature;BME280_humidity;BME280_pressure;Samples;Min_cycle;Max_cycle;Signal;HPM_P1;HPM_P2
2022/02/21 00:00:10;;;;;;;43.17;9.23;;;;;;;3.38;100.00;100135.31;4983491;28;20121;-81
2022/02/21 00:02:36;;;;;;;;;;;;;;;3.04;100.00;100125.22;4982610;28;20085;-82
2022/02/21 00:05:02;;;;;;;13.27;3.58;;;;;;;2.73;100.00;100116.59;4989259;28;19975;-83
2022/02/21 00:07:28;;;;;;;11.43;3.30;;;;;;;2.57;100.00;100116.34;4991805;28;20030;-81
2022/02/21 00:09:53;;;;;;;39.42;2.80;;;;;;;2.39;100.00;100108.22;5005360;28;20041;-81
2022/02/21 00:12:19;;;;;;;16.95;4.30;;;;;;;2.38;100.00;100138.38;4956323;28;20041;-81
2022/02/21 00:14:47;;;;;;;15.38;3.38;;;;;;;2.47;100.00;100103.06;4991159;28;20137;-84
2022/02/21 00:17:13;;;;;;;15.80;3.33;;;;;;;2.49;100.00;100127.63;4985907;28;20430;-81
2022/02/21 00:19:39;;;;;;;8.38;2.67;;;;;;;2.53;100.00;100141.47;4980130;28;20117;-81
2022/02/21 00:22:05;;;;;;;24.85;6.35;;;;;;;2.62;100.00;100135.34;4985992;28;20116;-81
2022/02/21 00:24:31;;;;;;;26.80;3.45;;;;;;;2.71;100.00;100145.09;4981968;28;21503;-83
2022/02/21 00:26:56;;;;;;;10.48;1.90;;;;;;;2.86;100.00;100142.88;4966692;28;20095;-85
2022/02/21 00:29:22;;;;;;;17.45;4.18;;;;;;;3.07;100.00;100124.09;4969325;28;20034;-82
2022/02/21 00:31:48;;;;;;;36.75;7.53;;;;;;;3.44;100.00;100141.88;4973512;28;20057;-82
2022/02/21 00:34:13;;;;;;;18.00;2.63;;;;;;;3.72;100.00;100153.41;4983568;28;20072;-81
2022/02/21 00:36:39;;;;;;;22.48;5.28;;;;;;;3.89;100.00;100136.69;4970119;28;20464;-81
2022/02/21 00:39:04;;;;;;;36.10;6.25;;;;;;;4.02;100.00;100146.09;4986388;28;20029;-82
2022/02/21 00:41:30;;;;;;;24.33;4.57;;;;;;;4.19;100.00;100158.63;4985583;28;20115;-81
2022/02/21 00:43:56;;;;;;;22.75;3.42;;;;;;;4.27;100.00;100150.72;4967279;28;20036;-81
2022/02/21 00:46:21;;;;;;;18.20;5.18;;;;;;;4.35;100.00;100161.47;4987450;28;20038;-81
2022/02/21 00:48:47;;;;;;;25.02;5.03;;;;;;;4.33;100.00;100160.75;4971187;28;20468;-82
2022/02/21 00:51:13;;;;;;;36.05;7.72;;;;;;;4.29;100.00;100105.34;4970530;28;20089;-81
2022/02/21 00:53:38;;;;;;;24.38;4.80;;;;;;;4.40;100.00;100153.03;4973098;28;20088;-81
2022/02/21 00:56:05;;;;;;;42.97;6.97;;;;;;;4.48;100.00;100126.50;4959071;28;20131;-81
2022/02/21 00:58:31;;;;;;;26.42;5.35;;;;;;;4.70;100.00;100156.31;4987484;28;20045;-82
2022/02/21 01:00:57;;;;;;;17.98;3.67;;;;;;;4.81;100.00;100156.06;4958538;28;20041;-81
2022/02/21 01:03:23;;;;;;;5.03;2.13;;;;;;;4.92;100.00;100155.00;4985671;28;20080;-81
2022/02/21 01:05:48;;;;;;;27.02;5.32;;;;;;;4.90;100.00;100141.00;4971279;28;20103;-83
2022/02/21 01:08:14;;;;;;;28.77;5.85;;;;;;;5.04;100.00;100175.09;4980516;28;20087;-85
2022/02/21 01:10:40;;;;;;;20.95;5.15;;;;;;;5.02;100.00;100161.06;4986407;28;20479;-84
2022/02/21 01:13:06;;;;;;;22.48;4.88;;;;;;;4.97;100.00;100185.50;4987143;28;20765;-82
2022/02/21 01:15:32;;;;;;;25.45;5.05;;;;;;;5.10;100.00;100187.78;4986934;28;20026;-82
2022/02/21 01:17:58;;;;;;;33.83;5.15;;;;;;;5.11;100.00;100209.94;4989929;28;20435;-82
2022/02/21 01:20:23;;;;;;;15.25;4.00;;;;;;;5.09;100.00;100180.78;4981233;28;20041;-82
2022/02/21 01:22:52;;;;;;;18.05;5.53;;;;;;;5.00;100.00;100185.22;4968927;28;20022;-82
2022/02/21 01:25:17;;;;;;;34.83;7.68;;;;;;;4.98;100.00;100170.38;4968868;28;20099;-83
2022/02/21 01:27:43;;;;;;;13.55;4.07;;;;;;;4.68;100.00;100164.44;4969144;28;20037;-84
2022/02/21 01:30:10;;;;;;;29.50;6.38;;;;;;;4.85;100.00;100221.38;4969313;28;20069;-81
2022/02/21 01:32:36;;;;;;;18.48;4.38;;;;;;;4.79;100.00;100214.84;4987906;28;20037;-84
2022/02/21 01:35:02;;;;;;;47.05;8.55;;;;;;;4.76;100.00;100236.44;4968965;28;20987;-84
2022/02/21 01:37:28;;;;;;;54.80;10.13;;;;;;;4.81;100.00;100207.50;4987796;28;20447;-85
2022/02/21 01:39:55;;;;;;;39.03;9.18;;;;;;;5.02;100.00;100236.50;4990384;28;20046;-82
2022/02/21 01:42:21;;;;;;;53.22;10.93;;;;;;;5.14;100.00;100241.63;4955493;28;20022;-81
2022/02/21 01:44:48;;;;;;;54.17;12.05;;;;;;;5.14;100.00;100258.44;4968919;28;20519;-81
2022/02/21 01:47:18;;;;;;;51.70;11.98;;;;;;;4.99;100.00;100251.97;4953332;28;20902;-83
2022/02/21 01:49:43;;;;;;;32.95;7.45;;;;;;;4.87;100.00;100243.38;4990147;28;20052;-82
2022/02/21 01:52:11;;;;;;;32.25;7.53;;;;;;;4.82;100.00;100248.31;5003583;28;20477;-82
2022/02/21 01:54:36;;;;;;;29.33;6.60;;;;;;;4.83;100.00;100253.47;4962513;28;20144;-83
2022/02/21 01:57:03;;;;;;;41.78;8.77;;;;;;;4.93;100.00;100248.09;4967373;28;20037;-82
2022/02/21 01:59:30;;;;;;;69.38;15.60;;;;;;;5.20;100.00;100255.16;4952998;28;20056;-85
2022/02/21 02:01:56;;;;;;;46.45;10.25;;;;;;;5.32;100.00;100258.44;4968510;28;20088;-83
2022/02/21 02:04:22;;;;;;;67.20;14.40;;;;;;;5.41;100.00;100246.00;4968620;28;20042;-81
2022/02/21 02:06:48;;;;;;;53.88;13.10;;;;;;;5.62;100.00;100264.34;4969559;28;20081;-83
2022/02/21 02:09:14;;;;;;;55.10;9.95;;;;;;;5.69;100.00;100282.22;4970284;28;20038;-82
2022/02/21 02:11:39;;;;;;;40.40;6.60;;;;;;;5.49;100.00;100241.56;4992564;28;20033;-84
2022/02/21 02:14:05;;;;;;;51.03;10.68;;;;;;;5.68;100.00;100264.53;4954247;28;20074;-83
2022/02/21 02:16:31;;;;;;;63.05;13.52;;;;;;;5.78;100.00;100287.63;4957410;28;20083;-87
2022/02/21 02:18:57;;;;;;;49.78;8.93;;;;;;;5.82;100.00;100267.63;4991268;28;20053;-82
2022/02/21 02:21:27;;;;;;;46.70;8.02;;;;;;;5.85;100.00;100276.16;5002125;28;20049;-83
2022/02/21 02:23:55;;;;;;;39.72;9.38;;;;;;;5.87;96.32;100284.00;4987989;28;20026;-82
2022/02/21 02:26:21;;;;;;;34.60;9.90;;;;;;;6.11;88.60;100257.50;4970478;28;20045;-83
2022/02/21 02:28:50;;;;;;;39.53;10.85;;;;;;;5.50;96.20;100327.72;4984375;28;20037;-86
2022/02/21 02:31:16;;;;;;;51.45;11.00;;;;;;;5.15;99.12;100318.75;4983947;28;20034;-87
2022/02/21 02:33:42;;;;;;;36.50;7.97;;;;;;;4.96;99.45;100305.56;4985650;28;20037;-81
2022/02/21 02:36:08;;;;;;;33.35;8.20;;;;;;;4.78;99.97;100302.88;4976667;28;20472;-82
2022/02/21 02:38:40;;;;;;;41.97;8.40;;;;;;;4.84;100.00;100343.09;4992489;28;20038;-82
2022/02/21 02:41:10;;;;;;;44.05;9.55;;;;;;;5.09;98.57;100321.19;4984533;28;20030;-85
2022/02/21 02:43:37;;;;;;;39.13;5.78;;;;;;;5.24;98.43;100325.84;4959717;28;20030;-83
2022/02/21 02:46:03;;;;;;;52.50;11.35;;;;;;;5.33;97.64;100307.25;4983882;28;20042;-84
2022/02/21 02:48:28;;;;;;;41.10;6.65;;;;;;;5.50;96.50;100314.38;4953386;28;20083;-84
2022/02/21 02:50:54;;;;;;;27.40;7.00;;;;;;;5.61;94.56;100337.31;4977089;28;20054;-83
2022/02/21 02:53:20;;;;;;;60.85;12.00;;;;;;;5.64;95.61;100339.69;4951917;28;20491;-81
2022/02/21 02:55:45;;;;;;;29.90;8.20;;;;;;;5.71;92.35;100356.75;4969310;28;20068;-85
2022/02/21 02:58:11;;;;;;;39.60;8.93;;;;;;;5.70;89.91;100381.75;4978973;28;20049;-82
2022/02/21 03:00:37;;;;;;;48.95;10.13;;;;;;;5.72;89.37;100391.28;4962229;28;20048;-83
2022/02/21 03:03:03;;;;;;;37.75;8.95;;;;;;;5.81;86.63;100378.84;4954319;28;20073;-82
2022/02/21 03:05:28;;;;;;;40.80;5.15;;;;;;;5.73;87.27;100398.28;4984811;28;20034;-82
2022/02/21 03:07:54;;;;;;;26.35;8.35;;;;;;;5.80;86.54;100379.00;4984104;28;20542;-82
2022/02/21 03:10:20;;;;;;;27.02;6.70;;;;;;;5.85;84.97;100377.56;4969063;28;20189;-86
2022/02/21 03:12:45;;;;;;;32.15;8.80;;;;;;;5.86;85.10;100378.38;4984020;28;20038;-82
2022/02/21 03:15:11;;;;;;;55.50;13.30;;;;;;;6.06;82.66;100363.91;4952636;28;20033;-83
2022/02/21 03:17:37;;;;;;;41.17;6.60;;;;;;;6.26;81.45;100390.38;4971020;28;20476;-82
2022/02/21 03:20:03;;;;;;;32.53;8.48;;;;;;;6.20;80.83;100372.34;4968878;28;20113;-83
2022/02/21 03:22:29;;;;;;;48.17;10.73;;;;;;;6.33;82.16;100370.06;4951270;28;20052;-81
2022/02/21 03:24:55;;;;;;;48.70;12.55;;;;;;;6.27;83.55;100394.72;4966985;28;20530;-85
2022/02/21 03:27:20;;;;;;;52.38;15.00;;;;;;;6.23;83.42;100372.00;4977663;28;20280;-83
2022/02/21 03:29:46;;;;;;;42.83;10.32;;;;;;;6.10;83.21;100370.59;4985613;28;20562;-82
2022/02/21 03:32:11;;;;;;;36.30;7.82;;;;;;;6.30;82.99;100392.59;4989201;28;20041;-81
2022/02/21 03:34:37;;;;;;;41.75;10.32;;;;;;;6.29;83.69;100408.75;5006237;28;20045;-82
2022/02/21 03:37:03;;;;;;;30.95;7.32;;;;;;;6.29;84.03;100417.59;4966326;28;20484;-82
2022/02/21 03:39:29;;;;;;;37.78;8.00;;;;;;;6.25;84.72;100440.28;4966120;28;20030;-84
2022/02/21 03:41:55;;;;;;;49.65;11.52;;;;;;;5.99;87.14;100415.38;4974296;28;20119;-83
2022/02/21 03:44:20;;;;;;;47.63;9.45;;;;;;;5.96;87.99;100427.19;4977135;28;20069;-82
2022/02/21 03:46:46;;;;;;;49.83;8.63;;;;;;;5.96;87.99;100416.53;4979522;28;20030;-83
2022/02/21 03:49:12;;;;;;;35.40;6.32;;;;;;;5.80;89.71;100425.19;4992918;28;20164;-82
2022/02/21 03:51:38;;;;;;;38.55;8.60;;;;;;;5.91;89.82;100432.97;4970579;28;20029;-83
2022/02/21 03:54:05;;;;;;;33.60;7.93;;;;;;;6.12;88.22;100431.84;4973545;28;20473;-82
2022/02/21 03:56:31;;;;;;;45.28;10.40;;;;;;;6.23;87.24;100442.25;4986028;28;20034;-82
2022/02/21 03:58:56;;;;;;;30.30;9.35;;;;;;;6.28;87.25;100455.16;4982236;28;20075;-83
2022/02/21 04:01:22;;;;;;;39.72;9.20;;;;;;;6.21;88.79;100465.59;5000978;28;20385;-83
2022/02/21 04:03:48;;;;;;;41.60;8.85;;;;;;;6.13;91.51;100485.06;4973327;28;20514;-83
2022/02/21 04:06:14;;;;;;;48.22;9.40;;;;;;;5.88;97.88;100496.47;4969745;28;20389;-83
2022/02/21 04:08:42;;;;;;;47.25;11.20;;;;;;;5.56;100.00;100480.94;4978931;28;20468;-87
2022/02/21 04:11:08;;;;;;;50.22;12.50;;;;;;;5.56;100.00;100513.81;4972350;28;20026;-85
2022/02/21 04:13:34;;;;;;;45.28;7.70;;;;;;;5.33;100.00;100513.38;4958568;28;20547;-82
2022/02/21 04:15:59;;;;;;;46.30;11.35;;;;;;;5.18;100.00;100497.00;4999573;28;20095;-84
2022/02/21 04:18:25;;;;;;;47.05;9.93;;;;;;;5.27;100.00;100530.81;4994663;28;20424;-82
2022/02/21 04:20:51;;;;;;;63.88;13.10;;;;;;;5.03;100.00;100517.16;4979678;28;20515;-82
2022/02/21 04:23:16;;;;;;;65.53;10.32;;;;;;;4.79;100.00;100557.59;4959577;28;20030;-82
2022/02/21 04:25:45;;;;;;;95.15;13.63;;;;;;;4.64;100.00;100567.84;4978744;28;20045;-82
2022/02/21 04:28:10;;;;;;;53.67;9.52;;;;;;;4.54;100.00;100548.38;4987491;28;20021;-82
2022/02/21 04:30:37;;;;;;;66.28;11.32;;;;;;;4.42;100.00;100539.72;4986806;28;20386;-82
2022/02/21 04:33:03;;;;;;;60.20;8.38;;;;;;;4.55;100.00;100566.03;4992823;28;20034;-85
2022/02/21 04:35:29;;;;;;;64.50;11.65;;;;;;;4.51;100.00;100562.81;5004023;28;20029;-84
2022/02/21 04:37:55;;;;;;;59.63;11.45;;;;;;;4.41;100.00;100514.91;4971540;28;20136;-82
2022/02/21 04:40:27;;;;;;;49.05;11.20;;;;;;;4.27;100.00;100565.91;4979896;28;20030;-84
2022/02/21 04:42:53;;;;;;;71.18;11.10;;;;;;;4.12;100.00;100567.28;4992093;28;20041;-81
2022/02/21 04:45:20;;;;;;;59.78;9.95;;;;;;;4.16;100.00;100579.34;4971554;28;20034;-80
2022/02/21 04:47:47;;;;;;;50.58;9.02;;;;;;;4.18;100.00;100556.09;4988875;28;20034;-80
2022/02/21 04:50:13;;;;;;;49.70;9.88;;;;;;;4.39;100.00;100580.78;4990663;28;20109;-81
2022/02/21 04:52:40;;;;;;;61.22;12.30;;;;;;;4.46;100.00;100590.84;4974643;28;20037;-81
2022/02/21 04:55:08;;;;;;;60.25;9.75;;;;;;;4.61;100.00;100598.28;4971060;28;20034;-81
2022/02/21 04:57:34;;;;;;;43.85;8.95;;;;;;;4.74;100.00;100595.31;4977410;28;20370;-81
2022/02/21 05:00:00;;;;;;;71.93;10.85;;;;;;;4.87;100.00;100618.13;4955744;28;20388;-81
2022/02/21 05:02:26;;;;;;;70.65;12.02;;;;;;;4.99;100.00;100595.69;4983956;28;20959;-81
2022/02/21 05:04:52;;;;;;;41.80;9.13;;;;;;;5.15;100.00;100611.91;4971253;28;20038;-81
2022/02/21 05:07:18;;;;;;;54.38;9.23;;;;;;;4.94;100.00;100633.41;4990017;28;20176;-84
2022/02/21 05:09:44;;;;;;;57.85;12.23;;;;;;;4.84;100.00;100641.44;4986045;28;20037;-85
2022/02/21 05:12:10;;;;;;;57.20;14.20;;;;;;;4.82;100.00;100653.22;4968732;28;20033;-80
2022/02/21 05:14:36;;;;;;;59.80;13.00;;;;;;;4.72;100.00;100684.34;4985562;28;20048;-82
2022/02/21 05:17:02;;;;;;;65.85;11.63;;;;;;;4.59;100.00;100669.47;4989876;28;20034;-81
2022/02/21 05:19:27;;;;;;;58.20;12.35;;;;;;;4.61;100.00;100650.69;4985754;28;20022;-82
2022/02/21 05:21:54;;;;;;;45.55;10.25;;;;;;;4.69;100.00;100677.47;4968704;28;20472;-82
2022/02/21 05:24:19;;;;;;;55.00;10.52;;;;;;;4.82;100.00;100687.84;4953335;28;20128;-82
2022/02/21 05:26:48;;;;;;;48.88;8.93;;;;;;;4.95;100.00;100703.53;4956914;28;20439;-81
2022/02/21 05:29:14;;;;;;;79.07;10.85;;;;;;;4.94;100.00;100693.88;4971449;28;20464;-81
2022/02/21 05:31:40;;;;;;;54.33;8.23;;;;;;;4.91;100.00;100662.19;4991493;28;20108;-82
2022/02/21 05:34:05;;;;;;;62.67;8.75;;;;;;;5.15;100.00;100699.03;4973180;28;20033;-81
2022/02/21 05:36:31;;;;;;;39.20;8.25;;;;;;;5.25;100.00;100714.03;4971769;28;20539;-83
2022/02/21 05:38:57;;;;;;;44.67;9.40;;;;;;;5.31;100.00;100706.47;4970757;28;20042;-82
2022/02/21 05:41:22;;;;;;;51.83;10.50;;;;;;;5.42;100.00;100724.97;4956126;28;20484;-80
2022/02/21 05:43:48;;;;;;;44.17;9.45;;;;;;;5.50;100.00;100720.59;4968300;28;20041;-81
2022/02/21 05:46:13;;;;;;;45.00;9.18;;;;;;;5.58;100.00;100722.53;4953608;28;20037;-82
2022/02/21 05:48:39;;;;;;;60.05;10.48;;;;;;;5.68;100.00;100728.69;4970005;28;20074;-82
2022/02/21 05:51:05;;;;;;;37.13;9.40;;;;;;;5.73;100.00;100737.09;4970559;28;20037;-81
2022/02/21 05:53:31;;;;;;;38.60;7.43;;;;;;;5.85;100.00;100745.78;4989179;28;20038;-84
2022/02/21 05:55:57;;;;;;;48.05;8.68;;;;;;;5.84;100.00;100724.56;4971477;28;20045;-83
2022/02/21 05:58:22;;;;;;;28.48;6.53;;;;;;;5.92;100.00;100746.03;4968721;28;20045;-82
2022/02/21 06:00:55;;;;;;;39.15;9.00;;;;;;;5.94;100.00;100744.09;4985599;28;20499;-81
2022/02/21 06:03:21;;;;;;;33.35;5.90;;;;;;;6.02;100.00;100746.88;4984770;28;20121;-81
2022/02/21 06:05:47;;;;;;;38.28;8.35;;;;;;;6.06;100.00;100750.94;4985462;28;20038;-82
2022/02/21 06:08:13;;;;;;;45.30;9.38;;;;;;;5.98;100.00;100765.97;4983309;28;20030;-81
2022/02/21 06:10:39;;;;;;;50.45;9.73;;;;;;;6.04;100.00;100792.94;4973022;28;20472;-81
2022/02/21 06:13:05;;;;;;;49.33;11.93;;;;;;;5.91;100.00;100787.06;4983637;28;20571;-84
2022/02/21 06:15:31;;;;;;;51.72;9.82;;;;;;;5.89;100.00;100797.03;4968011;28;20460;-84
2022/02/21 06:17:59;;;;;;;36.45;6.78;;;;;;;5.87;100.00;100825.66;4983765;28;20043;-82
2022/02/21 06:20:26;;;;;;;44.47;9.05;;;;;;;5.75;100.00;100816.16;4968789;28;20030;-83
2022/02/21 06:22:53;;;;;;;46.50;10.15;;;;;;;5.70;100.00;100816.59;4983447;28;20583;-81
2022/02/21 06:25:18;;;;;;;33.05;7.43;;;;;;;5.71;100.00;100824.44;4983078;28;20041;-85
2022/02/21 06:27:44;;;;;;;51.92;11.85;;;;;;;5.84;100.00;100836.63;5004432;28;20030;-81
2022/02/21 06:30:10;;;;;;;50.55;8.88;;;;;;;6.09;100.00;100849.41;4994025;28;20040;-82
2022/02/21 06:32:36;;;;;;;43.53;9.02;;;;;;;6.19;100.00;100853.88;4979588;28;20061;-81
2022/02/21 06:35:02;;;;;;;42.47;11.05;;;;;;;6.28;100.00;100875.22;4963497;28;20113;-82
2022/02/21 06:37:27;;;;;;;44.13;9.73;;;;;;;6.41;100.00;100884.75;4972775;28;20034;-82
2022/02/21 06:39:53;;;;;;;47.40;7.63;;;;;;;6.51;100.00;100907.75;4990985;28;20556;-80
2022/02/21 06:42:18;;;;;;;46.20;9.15;;;;;;;6.57;100.00;100912.50;4981532;28;20030;-80
2022/02/21 06:44:44;;;;;;;40.08;10.52;;;;;;;6.53;100.00;100921.78;4981408;28;20038;-85
2022/02/21 06:47:12;;;;;;;41.72;9.10;;;;;;;6.62;100.00;100924.59;4983965;28;20135;-82
2022/02/21 06:49:38;;;;;;;47.53;9.07;;;;;;;6.56;100.00;100940.22;4984223;28;20041;-83
2022/02/21 06:52:07;;;;;;;43.25;11.13;;;;;;;6.64;100.00;100952.81;4999481;28;20038;-85
2022/02/21 06:54:33;;;;;;;50.65;11.07;;;;;;;6.65;100.00;100957.19;4985704;28;20237;-82
2022/02/21 06:56:58;;;;;;;27.33;6.70;;;;;;;6.65;100.00;100975.06;4973953;28;20042;-82
2022/02/21 06:59:27;;;;;;;54.60;10.13;;;;;;;6.69;100.00;100957.75;4991374;28;20076;-84
2022/02/21 07:01:53;;;;;;;56.00;14.20;;;;;;;6.66;100.00;100968.72;4970565;28;20069;-83
2022/02/21 07:04:19;;;;;;;43.42;8.15;;;;;;;6.58;100.00;100972.97;4983931;28;20060;-82
2022/02/21 07:06:45;;;;;;;42.00;8.77;;;;;;;6.60;100.00;100992.38;4968362;28;20923;-85
2022/02/21 07:09:14;;;;;;;49.22;12.10;;;;;;;6.62;100.00;101012.78;4970001;28;22096;-82
2022/02/21 07:11:40;;;;;;;45.90;8.32;;;;;;;6.58;100.00;101005.00;4956576;28;20073;-82
2022/02/21 07:14:05;;;;;;;52.85;13.55;;;;;;;6.53;100.00;100998.44;4983844;28;20132;-83
2022/02/21 07:16:33;;;;;;;42.95;10.43;;;;;;;6.58;100.00;101020.22;4984046;28;20536;-87
2022/02/21 07:18:59;;;;;;;47.40;10.65;;;;;;;6.68;99.19;101034.41;4982818;28;20082;-82
2022/02/21 07:21:24;;;;;;;45.85;9.68;;;;;;;6.78;96.60;101042.41;4959186;28;20516;-84
2022/02/21 07:23:50;;;;;;;47.13;9.30;;;;;;;6.86;91.97;101052.38;4973667;28;20030;-83
2022/02/21 07:26:18;;;;;;;48.80;12.77;;;;;;;6.94;87.47;101052.50;4988753;28;20500;-84
2022/02/21 07:28:44;;;;;;;55.35;14.50;;;;;;;6.90;86.60;101064.44;4978500;28;20065;-82
2022/02/21 07:31:09;;;;;;;50.15;11.25;;;;;;;6.89;86.05;101052.09;4986337;28;20111;-83
2022/02/21 07:33:35;;;;;;;58.03;11.82;;;;;;;6.90;85.58;101070.63;4993462;28;20037;-82
2022/02/21 07:36:00;;;;;;;40.60;9.18;;;;;;;7.03;84.20;101095.22;4980622;28;20059;-82
2022/02/21 07:38:26;;;;;;;47.13;9.85;;;;;;;6.97;84.42;101079.78;4970259;28;20030;-83
2022/02/21 07:40:52;;;;;;;47.78;8.80;;;;;;;7.10;82.82;101094.66;5004890;28;20471;-83
2022/02/21 07:43:18;;;;;;;41.15;10.25;;;;;;;7.17;82.79;101112.66;4983563;28;20495;-83
2022/02/21 07:45:53;;;;;;;44.25;9.95;;;;;;;7.18;83.39;101124.19;4993806;28;20037;-83
2022/02/21 07:48:19;;;;;;;50.70;10.07;;;;;;;7.14;82.86;101128.97;4955933;28;20129;-83
2022/02/21 07:50:45;;;;;;;45.85;10.25;;;;;;;7.31;80.56;101145.28;4990262;28;20144;-86
2022/02/21 07:53:10;;;;;;;36.28;10.85;;;;;;;7.37;77.16;101124.13;4953626;28;20053;-85
2022/02/21 07:55:36;;;;;;;24.70;5.70;;;;;;;7.32;76.86;101137.09;4988939;28;20038;-83
2022/02/21 07:58:02;;;;;;;42.95;11.10;;;;;;;7.38;73.87;101157.94;4975180;28;20036;-82
2022/02/21 08:00:28;;;;;;;44.72;11.05;;;;;;;7.45;71.70;101148.31;5004712;28;20025;-83
2022/02/21 08:02:54;;;;;;;34.30;6.80;;;;;;;7.44;71.90;101157.34;5002526;28;20427;-81
2022/02/21 08:05:19;;;;;;;27.88;6.03;;;;;;;7.48;70.73;101168.59;4963759;28;20595;-84
2022/02/21 08:07:45;;;;;;;28.40;9.20;;;;;;;7.30;71.21;101127.53;4975656;28;20433;-82
2022/02/21 08:10:12;;;;;;;32.35;8.82;;;;;;;7.48;70.26;101163.25;4966334;28;20076;-85
2022/02/21 08:12:38;;;;;;;30.83;7.00;;;;;;;7.62;70.97;101161.91;4975487;28;20353;-82
2022/02/21 08:15:04;;;;;;;32.55;9.02;;;;;;;7.71;69.80;101161.88;4986351;28;20022;-83
2022/02/21 08:17:38;;;;;;;39.60;9.85;;;;;;;7.72;71.19;101160.06;4965355;28;20033;-83
2022/02/21 08:20:04;;;;;;;36.20;9.90;;;;;;;7.77;71.74;101173.00;4981229;28;20060;-82
2022/02/21 08:22:29;;;;;;;44.40;9.65;;;;;;;7.71;72.29;101177.94;4945724;28;20034;-85
2022/02/21 08:24:55;;;;;;;36.33;7.53;;;;;;;7.75;72.94;101193.72;4962963;28;20042;-83
2022/02/21 08:27:21;;;;;;;50.20;11.38;;;;;;;7.79;73.46;101181.75;4967834;28;20057;-81
2022/02/21 08:29:46;;;;;;;32.63;9.82;;;;;;;7.88;73.19;101176.31;4966761;28;20446;-83
2022/02/21 08:32:12;;;;;;;37.75;6.70;;;;;;;7.87;73.96;101171.97;5003554;28;20050;-83
2022/02/21 08:34:41;;;;;;;35.05;7.93;;;;;;;7.92;73.67;101193.78;4971496;28;20037;-82
2022/02/21 08:37:07;;;;;;;42.20;8.57;;;;;;;7.89;73.40;101180.69;4982262;28;20022;-82
2022/02/21 08:39:34;;;;;;;40.25;8.27;;;;;;;8.02;73.55;101188.41;4982951;28;20045;-83
2022/02/21 08:41:59;;;;;;;39.35;9.05;;;;;;;8.20;72.90;101187.59;4981192;28;20041;-84
2022/02/21 08:44:25;;;;;;;42.45;10.10;;;;;;;8.32;70.29;101200.63;4986531;28;20076;-82
2022/02/21 08:46:51;;;;;;;49.97;9.63;;;;;;;8.52;70.27;101196.03;4961078;28;20036;-83
2022/02/21 08:49:17;;;;;;;47.00;11.57;;;;;;;8.56;68.70;101199.25;4986881;28;20084;-85
2022/02/21 08:51:42;;;;;;;30.27;7.18;;;;;;;8.42;69.84;101191.72;4987365;28;20424;-83
2022/02/21 08:54:09;;;;;;;35.13;8.13;;;;;;;8.19;70.40;101208.16;4987113;28;20436;-82
2022/02/21 08:56:35;;;;;;;30.33;6.78;;;;;;;8.86;68.08;101208.72;4988431;28;20030;-83
2022/02/21 08:59:02;;;;;;;34.03;8.40;;;;;;;9.12;65.82;101198.06;4974137;28;20030;-82
2022/02/21 09:01:27;;;;;;;30.88;8.10;;;;;;;9.48;63.83;101176.53;4989357;28;20029;-85
2022/02/21 09:03:53;;;;;;;37.80;9.82;;;;;;;10.30;59.56;101206.50;4992185;28;20021;-84
2022/02/21 09:06:28;;;;;;;38.35;8.38;;;;;;;10.93;57.31;101200.56;4963380;28;20511;-82
2022/02/21 09:08:53;;;;;;;33.17;8.30;;;;;;;11.27;55.98;101213.00;4993664;28;20411;-83
2022/02/21 09:11:19;;;;;;;57.55;8.60;;;;;;;10.46;57.81;101203.84;4985021;28;20034;-82
2022/02/21 09:13:45;;;;;;;32.92;7.25;;;;;;;9.95;59.03;101220.91;5009886;28;20411;-81
2022/02/21 09:16:10;;;;;;;27.80;6.85;;;;;;;9.76;59.66;101227.34;5009782;28;20041;-81
2022/02/21 09:18:36;;;;;;;19.20;4.32;;;;;;;10.11;59.20;101248.72;4991398;28;20484;-83
2022/02/21 09:21:01;;;;;;;28.17;7.13;;;;;;;10.11;58.90;101234.44;4971982;28;20044;-82
2022/02/21 09:23:27;;;;;;;37.75;8.52;;;;;;;10.23;58.22;101251.09;4968696;28;20037;-82
2022/02/21 09:25:56;;;;;;;34.63;6.32;;;;;;;11.20;55.45;101263.16;4953517;28;20412;-82
2022/02/21 09:28:22;;;;;;;35.95;6.82;;;;;;;11.92;52.83;101275.91;4969670;28;20033;-84
2022/02/21 09:30:47;;;;;;;31.23;6.75;;;;;;;11.05;54.74;101267.50;5002841;28;20735;-82
2022/02/21 09:33:13;;;;;;;32.90;8.48;;;;;;;11.42;54.39;101267.84;4971729;28;20037;-82
2022/02/21 09:35:41;;;;;;;30.77;7.03;;;;;;;12.22;51.92;101266.19;4959508;28;20522;-84
2022/02/21 09:38:06;;;;;;;33.63;7.43;;;;;;;12.35;51.47;101269.19;4991883;28;20397;-82
2022/02/21 09:40:32;;;;;;;27.38;8.98;;;;;;;12.58;50.57;101288.13;4989178;28;20476;-81
2022/02/21 09:42:59;;;;;;;27.95;8.52;;;;;;;12.60;50.33;101278.00;4989158;28;20065;-82
2022/02/21 09:45:28;;;;;;;31.63;7.95;;;;;;;13.02;49.79;101279.47;4987527;28;20037;-82
2022/02/21 09:47:55;;;;;;;31.50;8.38;;;;;;;13.88;47.61;101298.19;4991374;28;20462;-82
2022/02/21 09:50:21;;;;;;;28.83;7.28;;;;;;;12.36;51.67;101278.97;4973038;28;20049;-83
2022/02/21 09:52:46;;;;;;;19.00;5.57;;;;;;;11.85;54.07;101306.22;4993454;28;20072;-82
2022/02/21 09:55:12;;;;;;;25.27;5.70;;;;;;;11.58;53.85;101285.00;4977889;28;20036;-83
2022/02/21 09:57:37;;;;;;;29.00;7.00;;;;;;;11.10;55.37;101290.22;4990443;28;20400;-83
2022/02/21 10:00:05;;;;;;;26.67;7.45;;;;;;;11.06;56.67;101312.22;4970529;28;20410;-82
2022/02/21 10:02:33;;;;;;;29.95;7.10;;;;;;;11.56;54.18;101314.78;5004185;28;20053;-83
2022/02/21 10:05:12;;;;;;;20.77;5.18;;;;;;;11.23;54.79;101322.03;4979957;28;20030;-83
2022/02/21 10:07:39;;;;;;;25.05;6.22;;;;;;;11.55;54.00;101317.66;4975671;28;20168;-82
2022/02/21 10:10:06;;;;;;;28.30;7.22;;;;;;;11.34;54.62;101321.69;4993559;28;20037;-82
2022/02/21 10:12:32;;;;;;;24.52;7.93;;;;;;;10.93;55.56;101308.19;5001700;28;20051;-82
2022/02/21 10:15:22;;;;;;;18.33;5.90;;;;;;;11.19;55.67;101307.19;4973684;28;20041;-83
2022/02/21 10:17:49;;;;;;;31.02;8.20;;;;;;;11.13;56.44;101322.16;4978909;28;20380;-84
2022/02/21 10:20:16;;;;;;;26.25;6.95;;;;;;;10.43;58.78;101317.09;4999023;28;20033;-83
2022/02/21 10:23:00;;;;;;;37.53;9.20;;;;;;;12.04;55.26;101307.72;4996994;28;20635;-82
2022/02/21 10:25:26;;;;;;;21.52;5.32;;;;;;;14.38;48.73;101304.75;4977251;28;20095;-82
2022/02/21 10:27:51;;;;;;;35.00;10.15;;;;;;;14.88;45.87;101322.88;4979447;28;20042;-82
2022/02/21 10:30:17;;;;;;;25.63;6.55;;;;;;;15.17;46.43;101331.97;4975520;28;20033;-87
2022/02/21 10:32:44;;;;;;;20.52;4.35;;;;;;;15.46;45.29;101349.97;4991435;28;21337;-82
2022/02/21 10:35:15;;;;;;;26.75;5.57;;;;;;;15.63;45.20;101350.53;4960604;28;20035;-83
2022/02/21 10:37:46;;;;;;;25.10;7.47;;;;;;;14.64;46.65;101366.53;4991604;28;20116;-82
2022/02/21 10:40:19;;;;;;;28.10;6.93;;;;;;;13.86;49.15;101363.22;4961357;28;20034;-76
2022/02/21 10:42:47;;;;;;;;;;;;;;;13.38;50.73;101371.53;4972048;28;20045;-84
2022/02/21 10:45:18;;;;;;;23.13;6.35;;;;;;;12.44;53.60;101369.81;4974087;28;20371;-79
2022/02/21 10:48:00;;;;;;;34.35;8.40;;;;;;;11.74;55.26;101379.28;4972188;28;20431;-75
2022/02/21 10:50:29;;;;;;;28.92;9.15;;;;;;;11.39;57.65;101394.72;5008812;28;20034;-75
2022/02/21 10:52:55;;;;;;;33.25;6.60;;;;;;;11.80;56.50;101396.63;4975726;28;20062;-77
2022/02/21 10:55:31;;;;;;;30.95;7.47;;;;;;;11.29;58.27;101394.03;4959516;28;20057;-76
2022/02/21 10:57:57;;;;;;;34.33;5.90;;;;;;;11.19;59.13;101396.03;4990513;28;20033;-76
2022/02/21 11:00:22;;;;;;;24.10;6.65;;;;;;;12.77;54.61;101392.94;4983308;28;20116;-78
2022/02/21 11:02:48;;;;;;;27.15;5.47;;;;;;;11.90;56.83;101408.09;4957085;28;20091;-81
2022/02/21 11:05:14;;;;;;;28.17;8.25;;;;;;;12.64;55.57;101400.72;4968586;28;20037;-78
2022/02/21 11:07:44;;;;;;;18.75;5.40;;;;;;;12.69;54.83;101402.91;4957950;28;20037;-77
2022/02/21 11:10:10;;;;;;;28.73;4.65;;;;;;;11.85;58.53;101416.69;4976359;28;20388;-79
2022/02/21 11:12:39;;;;;;;28.73;6.05;;;;;;;11.32;60.67;101431.41;4995436;28;20038;-77
2022/02/21 11:15:06;;;;;;;28.92;6.25;;;;;;;11.11;61.12;101417.53;4970193;28;20041;-80